Time;durP1;ratioP1;P1;durP2;ratioP2;P2;SDS_P1;SDS_P2;PMS_P1;PMS_P2;Temp;Humidity;BMP_temperature;BMP_pressure;BME280_temperature;BME280_humidity;BME280_pressure;Samples;Min_cycle;Max_cycle;Signal;HPM_P1;HPM_P2
2023/09/06 00:00:26;;;;;;;0.73;0.73;;;;;;;;;;5113806;28;20195;-81
2023/09/06 00:02:55;;;;;;;1.27;1.17;;;;;;;;;;5113013;28;20211;-81
2023/09/06 00:05:23;;;;;;;0.30;0.30;;;;;;;;;;5113042;28;20205;-82
2023/09/06 00:07:53;;;;;;;0.20;0.20;;;;;;;;;;5113066;28;20210;-82
2023/09/06 00:10:21;;;;;;;0.43;0.43;;;;;;;;;;5113405;28;20197;-81
2023/09/06 00:12:50;;;;;;;0.20;0.20;;;;;;;;;;5113188;28;20257;-82
2023/09/06 00:15:19;;;;;;;0.40;0.40;;;;;;;;;;5113107;28;20222;-81
2023/09/06 00:17:47;;;;;;;0.30;0.30;;;;;;;;;;5113326;28;20238;-81
2023/09/06 00:20:19;;;;;;;0.50;0.50;;;;;;;;;;5113026;28;20207;-81
2023/09/06 00:22:48;;;;;;;1.80;1.77;;;;;;;;;;5113193;28;20205;-81
2023/09/06 00:25:18;;;;;;;0.30;0.30;;;;;;;;;;5113056;28;20203;-81
2023/09/06 00:27:46;;;;;;;0.40;0.40;;;;;;;;;;5114306;28;20202;-82
2023/09/06 00:30:15;;;;;;;3.50;2.30;;;;;;;;;;5116771;28;20202;-81
2023/09/06 00:32:43;;;;;;;1.90;1.40;;;;;;;;;;5117540;27;20240;-81
2023/09/06 00:35:12;;;;;;;2.43;2.33;;;;;;;;;;5116804;28;20311;-81
2023/09/06 00:37:41;;;;;;;0.30;0.30;;;;;;;;;;5117157;28;20224;-81
2023/09/06 00:40:14;;;;;;;0.60;0.60;;;;;;;;;;5117077;28;20201;-81
2023/09/06 00:42:44;;;;;;;0.90;0.90;;;;;;;;;;5117320;28;20185;-81
2023/09/06 00:45:12;;;;;;;0.50;0.50;;;;;;;;;;5116819;28;20247;-82
2023/09/06 00:47:42;;;;;;;0.63;0.63;;;;;;;;;;5116985;28;20197;-81
2023/09/06 00:50:14;;;;;;;1.10;1.10;;;;;;;;;;5116959;28;20202;-81
2023/09/06 00:52:43;;;;;;;0.60;0.60;;;;;;;;;;5116840;28;20209;-82
2023/09/06 00:55:11;;;;;;;0.50;0.50;;;;;;;;;;5116253;27;20205;-82
2023/09/06 00:57:40;;;;;;;0.40;0.40;;;;;;;;;;5116689;28;20200;-81
2023/09/06 01:00:17;;;;;;;0.43;0.43;;;;;;;;;;5117026;28;20197;-81
2023/09/06 01:02:46;;;;;;;2.63;1.53;;;;;;;;;;5116611;28;20201;-82
2023/09/06 01:05:15;;;;;;;2.43;2.17;;;;;;;;;;5116597;28;20193;-81
2023/09/06 01:07:45;;;;;;;1.10;1.00;;;;;;;;;;5116731;28;20197;-81
2023/09/06 01:10:13;;;;;;;0.40;0.40;;;;;;;;;;5116487;28;20248;-81
2023/09/06 01:12:41;;;;;;;0.37;0.37;;;;;;;;;;5116389;28;20232;-81
2023/09/06 01:15:12;;;;;;;0.70;0.70;;;;;;;;;;5116133;28;20222;-81
2023/09/06 01:17:42;;;;;;;0.50;0.50;;;;;;;;;;5116583;28;20237;-81
2023/09/06 01:20:15;;;;;;;0.97;0.97;;;;;;;;;;5116552;28;20196;-81
2023/09/06 01:22:49;;;;;;;0.27;0.27;;;;;;;;;;5116505;28;20291;-82
2023/09/06 01:25:19;;;;;;;0.40;0.40;;;;;;;;;;5115809;28;20204;-82
2023/09/06 01:27:48;;;;;;;0.30;0.30;;;;;;;;;;5116155;28;20192;-82
2023/09/06 01:30:18;;;;;;;0.30;0.30;;;;;;;;;;5116113;28;20201;-81
2023/09/06 01:32:46;;;;;;;0.30;0.30;;;;;;;;;;5116067;28;20226;-81
2023/09/06 01:35:16;;;;;;;0.30;0.30;;;;;;;;;;5115912;28;20274;-81
2023/09/06 01:37:44;;;;;;;0.40;0.40;;;;;;;;;;5116084;28;20219;-82
2023/09/06 01:40:16;;;;;;;0.60;0.60;;;;;;;;;;5115039;28;20194;-82
2023/09/06 01:42:46;;;;;;;0.30;0.30;;;;;;;;;;5115842;27;20197;-81
2023/09/06 01:45:17;;;;;;;0.50;0.50;;;;;;;;;;5115837;28;20191;-82
2023/09/06 01:47:46;;;;;;;0.30;0.30;;;;;;;;;;5116323;28;20201;-82
2023/09/06 01:50:19;;;;;;;0.40;0.40;;;;;;;;;;5115525;28;20208;-82
2023/09/06 01:52:47;;;;;;;0.30;0.30;;;;;;;;;;5116022;28;20204;-81
2023/09/06 01:55:16;;;;;;;0.50;0.50;;;;;;;;;;5115659;28;20312;-82
2023/09/06 01:57:46;;;;;;;0.30;0.30;;;;;;;;;;5115737;28;20195;-82
2023/09/06 02:00:22;;;;;;;0.57;0.57;;;;;;;;;;5115414;28;20187;-81
2023/09/06 02:02:50;;;;;;;0.83;0.83;;;;;;;;;;5115572;28;20192;-81
2023/09/06 02:05:19;;;;;;;0.80;0.80;;;;;;;;;;5115658;28;20196;-81
2023/09/06 02:07:48;;;;;;;0.20;0.20;;;;;;;;;;5115358;28;20214;-82
2023/09/06 02:10:16;;;;;;;0.23;0.23;;;;;;;;;;5115526;28;20204;-81
2023/09/06 02:12:46;;;;;;;0.30;0.30;;;;;;;;;;5115883;28;20219;-81
2023/09/06 02:15:15;;;;;;;0.30;0.30;;;;;;;;;;5115162;28;20261;-82
2023/09/06 02:17:44;;;;;;;0.83;0.60;;;;;;;;;;5114687;28;20234;-82
2023/09/06 02:20:17;;;;;;;0.30;0.30;;;;;;;;;;5115425;28;20202;-81
2023/09/06 02:22:47;;;;;;;0.23;0.23;;;;;;;;;;5115217;28;20210;-81
2023/09/06 02:25:16;;;;;;;0.30;0.30;;;;;;;;;;5114997;28;20201;-81
2023/09/06 02:27:46;;;;;;;0.30;0.30;;;;;;;;;;5114888;28;20203;-81
2023/09/06 02:30:15;;;;;;;0.30;0.30;;;;;;;;;;5115099;28;20202;-81
2023/09/06 02:32:43;;;;;;;0.30;0.30;;;;;;;;;;5115126;28;20206;-81
2023/09/06 02:35:12;;;;;;;0.30;0.30;;;;;;;;;;5114771;28;20272;-81
2023/09/06 02:37:40;;;;;;;0.63;0.60;;;;;;;;;;5114697;28;20222;-81
2023/09/06 02:40:13;;;;;;;0.30;0.30;;;;;;;;;;5114832;28;20204;-81
2023/09/06 02:42:42;;;;;;;0.30;0.30;;;;;;;;;;5114809;28;20260;-81
2023/09/06 02:45:13;;;;;;;0.30;0.30;;;;;;;;;;5113791;28;20202;-81
2023/09/06 02:47:47;;;;;;;0.60;0.60;;;;;;;;;;5114100;28;20206;-81
2023/09/06 02:50:17;;;;;;;0.60;0.60;;;;;;;;;;5114225;28;20269;-81
2023/09/06 02:52:46;;;;;;;5.83;5.33;;;;;;;;;;5113554;28;20198;-81
2023/09/06 02:55:15;;;;;;;0.30;0.30;;;;;;;;;;5114464;28;20220;-81
2023/09/06 02:57:44;;;;;;;1.40;1.33;;;;;;;;;;5114723;28;20201;-81
2023/09/06 03:00:24;;;;;;;0.40;0.40;;;;;;;;;;5114550;28;20202;-81
2023/09/06 03:02:58;;;;;;;1.80;1.13;;;;;;;;;;5114118;28;20193;-81
2023/09/06 03:05:28;;;;;;;0.90;0.90;;;;;;;;;;5114083;28;20203;-81
2023/09/06 03:07:56;;;;;;;0.87;0.87;;;;;;;;;;5114267;28;20256;-81
2023/09/06 03:10:25;;;;;;;0.40;0.40;;;;;;;;;;5114198;28;20199;-81
2023/09/06 03:12:57;;;;;;;1.60;1.50;;;;;;;;;;5114276;28;20205;-81
2023/09/06 03:15:28;;;;;;;0.60;0.60;;;;;;;;;;5113676;28;20213;-81
2023/09/06 03:17:59;;;;;;;0.90;0.90;;;;;;;;;;5114099;28;20238;-81
2023/09/06 03:20:33;;;;;;;0.60;0.60;;;;;;;;;;5113496;28;20214;-81
2023/09/06 03:23:02;;;;;;;0.30;0.30;;;;;;;;;;5113824;28;20450;-81
2023/09/06 03:25:32;;;;;;;0.30;0.30;;;;;;;;;;5113661;28;20200;-81
2023/09/06 03:28:01;;;;;;;0.70;0.70;;;;;;;;;;5113982;28;20218;-81
2023/09/06 03:30:31;;;;;;;0.50;0.50;;;;;;;;;;5113507;28;20185;-81
2023/09/06 03:32:59;;;;;;;0.90;0.90;;;;;;;;;;5113712;28;20200;-81
2023/09/06 03:35:28;;;;;;;3.83;3.50;;;;;;;;;;5113940;28;20215;-81
2023/09/06 03:37:56;;;;;;;0.30;0.30;;;;;;;;;;5113538;27;20215;-82
2023/09/06 03:40:34;;;;;;;0.50;0.50;;;;;;;;;;5113582;28;20260;-81
2023/09/06 03:43:14;;;;;;;0.50;0.50;;;;;;;;;;5114004;28;20257;-81
2023/09/06 03:45:45;;;;;;;0.37;0.37;;;;;;;;;;5113725;28;20230;-81
2023/09/06 03:48:14;;;;;;;1.77;1.43;;;;;;;;;;5113734;28;20208;-81
2023/09/06 03:50:43;;;;;;;2.73;1.53;;;;;;;;;;5113902;28;20225;-81
2023/09/06 03:53:13;;;;;;;1.77;1.67;;;;;;;;;;5113979;28;20207;-81
2023/09/06 03:55:42;;;;;;;0.30;0.30;;;;;;;;;;5113564;28;20221;-81
2023/09/06 03:58:12;;;;;;;0.60;0.60;;;;;;;;;;5113049;28;20197;-81
2023/09/06 04:00:43;;;;;;;2.10;2.00;;;;;;;;;;5113467;28;20212;-82
2023/09/06 04:03:13;;;;;;;1.63;1.53;;;;;;;;;;5113343;28;20199;-81
2023/09/06 04:05:45;;;;;;;0.30;0.30;;;;;;;;;;5113985;28;20222;-81
2023/09/06 04:08:17;;;;;;;0.40;0.40;;;;;;;;;;5113547;28;20207;-81
2023/09/06 04:10:46;;;;;;;0.57;0.57;;;;;;;;;;5114014;28;20207;-81
2023/09/06 04:13:15;;;;;;;5.07;3.27;;;;;;;;;;5113638;28;20301;-81
2023/09/06 04:15:44;;;;;;;1.80;1.70;;;;;;;;;;5113485;28;20232;-81
2023/09/06 04:18:14;;;;;;;2.83;2.10;;;;;;;;;;5113663;28;20235;-81
2023/09/06 04:20:46;;;;;;;1.07;1.07;;;;;;;;;;5113889;28;20230;-81
2023/09/06 04:23:16;;;;;;;1.53;1.43;;;;;;;;;;5113444;28;20406;-81
2023/09/06 04:25:45;;;;;;;0.63;0.63;;;;;;;;;;5113270;28;20476;-81
2023/09/06 04:28:15;;;;;;;3.23;2.80;;;;;;;;;;5112937;28;20207;-81
2023/09/06 04:30:45;;;;;;;1.60;1.50;;;;;;;;;;5112714;28;20203;-81
2023/09/06 04:33:16;;;;;;;1.23;1.13;;;;;;;;;;5112535;28;20198;-81
2023/09/06 04:35:45;;;;;;;2.50;2.30;;;;;;;;;;5112746;28;20223;-81
2023/09/06 04:38:15;;;;;;;1.33;1.23;;;;;;;;;;5112843;28;20304;-81
2023/09/06 04:40:45;;;;;;;1.33;1.23;;;;;;;;;;5112433;28;20215;-81
2023/09/06 04:43:13;;;;;;;1.07;1.07;;;;;;;;;;5112403;28;20216;-82
2023/09/06 04:45:42;;;;;;;2.47;2.27;;;;;;;;;;5112131;28;20196;-81
2023/09/06 04:48:12;;;;;;;0.30;0.30;;;;;;;;;;5112794;28;20201;-81
2023/09/06 04:50:44;;;;;;;0.30;0.30;;;;;;;;;;5112292;28;20197;-81
2023/09/06 04:53:17;;;;;;;0.40;0.40;;;;;;;;;;5112315;28;20224;-81
2023/09/06 04:55:49;;;;;;;0.40;0.40;;;;;;;;;;5112772;28;20205;-81
2023/09/06 04:58:19;;;;;;;0.40;0.40;;;;;;;;;;5112419;28;20283;-81
2023/09/06 05:00:48;;;;;;;0.30;0.30;;;;;;;;;;5112612;28;20251;-81
2023/09/06 05:03:18;;;;;;;0.80;0.80;;;;;;;;;;5112740;28;20242;-81
2023/09/06 05:05:51;;;;;;;0.30;0.30;;;;;;;;;;5112603;28;20228;-81
2023/09/06 05:08:20;;;;;;;0.30;0.30;;;;;;;;;;5111369;28;20220;-81
2023/09/06 05:10:51;;;;;;;0.40;0.40;;;;;;;;;;5112392;28;20217;-81
2023/09/06 05:13:20;;;;;;;0.30;0.30;;;;;;;;;;5112857;28;20215;-81
2023/09/06 05:15:48;;;;;;;0.30;0.30;;;;;;;;;;5114836;28;20200;-81
2023/09/06 05:18:17;;;;;;;0.20;0.20;;;;;;;;;;5115755;28;20233;-81
2023/09/06 05:20:45;;;;;;;0.30;0.30;;;;;;;;;;5116082;28;20201;-81
2023/09/06 05:23:16;;;;;;;0.30;0.30;;;;;;;;;;5116124;28;20257;-81
2023/09/06 05:25:46;;;;;;;0.40;0.40;;;;;;;;;;5115485;28;20194;-81
2023/09/06 05:28:15;;;;;;;0.30;0.30;;;;;;;;;;5115957;28;20210;-81
2023/09/06 05:30:45;;;;;;;0.73;0.73;;;;;;;;;;5116178;28;20197;-81
2023/09/06 05:33:14;;;;;;;1.73;1.70;;;;;;;;;;5116255;27;20200;-82
2023/09/06 05:35:46;;;;;;;2.53;1.27;;;;;;;;;;5116266;27;20221;-81
2023/09/06 05:38:16;;;;;;;1.20;1.20;;;;;;;;;;5116193;28;20287;-81
2023/09/06 05:40:48;;;;;;;0.80;0.80;;;;;;;;;;5115876;28;20214;-82
2023/09/06 05:43:17;;;;;;;1.57;1.47;;;;;;;;;;5116226;28;20205;-82
2023/09/06 05:45:45;;;;;;;1.27;1.17;;;;;;;;;;5116490;28;20205;-83
2023/09/06 05:48:14;;;;;;;0.67;0.67;;;;;;;;;;5116300;28;20205;-82
2023/09/06 05:50:43;;;;;;;0.40;0.40;;;;;;;;;;5116092;27;20299;-82
2023/09/06 05:53:11;;;;;;;2.87;2.50;;;;;;;;;;5115834;28;20193;-82
2023/09/06 05:55:41;;;;;;;0.87;0.87;;;;;;;;;;5115110;28;20207;-81
2023/09/06 05:58:10;;;;;;;5.20;4.80;;;;;;;;;;5115198;28;20312;-81
2023/09/06 06:00:39;;;;;;;2.67;2.40;;;;;;;;;;5114886;28;20230;-81
2023/09/06 06:03:07;;;;;;;1.00;1.00;;;;;;;;;;5115148;28;20197;-81
2023/09/06 06:05:36;;;;;;;2.33;2.17;;;;;;;;;;5114888;28;20224;-81
2023/09/06 06:08:05;;;;;;;1.47;1.47;;;;;;;;;;5115352;28;20205;-81
2023/09/06 06:10:34;;;;;;;1.53;1.43;;;;;;;;;;5115040;28;20275;-82
2023/09/06 06:13:05;;;;;;;1.90;1.80;;;;;;;;;;5114835;28;20201;-81
2023/09/06 06:15:34;;;;;;;0.60;0.60;;;;;;;;;;5114849;28;20225;-81
2023/09/06 06:18:05;;;;;;;4.03;3.73;;;;;;;;;;5114734;28;20229;-81
2023/09/06 06:20:36;;;;;;;4.80;3.23;;;;;;;;;;5114835;28;20235;-81
2023/09/06 06:23:12;;;;;;;2.83;2.20;;;;;;;;;;5115200;28;20192;-80
2023/09/06 06:25:40;;;;;;;1.10;1.00;;;;;;;;;;5115056;28;20203;-81
2023/09/06 06:28:11;;;;;;;0.60;0.60;;;;;;;;;;5115179;28;20196;-80
2023/09/06 06:30:39;;;;;;;1.03;1.03;;;;;;;;;;5114897;28;20232;-80
2023/09/06 06:33:08;;;;;;;0.70;0.70;;;;;;;;;;5114853;28;20201;-81
2023/09/06 06:35:38;;;;;;;3.03;1.77;;;;;;;;;;5114754;28;20204;-80
2023/09/06 06:38:07;;;;;;;1.07;1.07;;;;;;;;;;5114415;27;20227;-80
2023/09/06 06:40:37;;;;;;;0.70;0.70;;;;;;;;;;5114931;28;20215;-81
2023/09/06 06:43:07;;;;;;;1.13;1.13;;;;;;;;;;5115135;28;20401;-80
2023/09/06 06:45:37;;;;;;;0.40;0.40;;;;;;;;;;5114582;28;20212;-80
2023/09/06 06:48:06;;;;;;;1.90;1.43;;;;;;;;;;5114614;28;20322;-80
2023/09/06 06:50:35;;;;;;;0.60;0.60;;;;;;;;;;5114938;28;20201;-81
2023/09/06 06:53:03;;;;;;;1.60;1.43;;;;;;;;;;5115372;28;20208;-80
2023/09/06 06:55:33;;;;;;;8.00;6.03;;;;;;;;;;5113736;28;20309;-80
2023/09/06 06:58:02;;;;;;;6.47;5.37;;;;;;;;;;5113620;28;20216;-80
2023/09/06 07:00:31;;;;;;;7.80;5.87;;;;;;;;;;5114269;28;20196;-80
2023/09/06 07:03:05;;;;;;;7.43;5.67;;;;;;;;;;5114071;28;20260;-80
2023/09/06 07:05:35;;;;;;;10.60;8.67;;;;;;;;;;5113507;28;20261;-80
2023/09/06 07:08:05;;;;;;;5.30;4.57;;;;;;;;;;5113820;28;20197;-80
2023/09/06 07:10:33;;;;;;;6.83;6.00;;;;;;;;;;5113542;28;20253;-80
2023/09/06 07:13:02;;;;;;;7.30;5.33;;;;;;;;;;5114019;28;20211;-80
2023/09/06 07:15:31;;;;;;;0.30;0.30;;;;;;;;;;5113711;27;20197;-80
2023/09/06 07:18:04;;;;;;;0.23;0.23;;;;;;;;;;5113536;28;20245;-79
2023/09/06 07:20:34;;;;;;;0.30;0.30;;;;;;;;;;5113561;28;20290;-80
2023/09/06 07:23:03;;;;;;;2.33;2.07;;;;;;;;;;5113221;28;20193;-80
2023/09/06 07:25:31;;;;;;;3.63;3.20;;;;;;;;;;5113320;28;20201;-80
2023/09/06 07:28:00;;;;;;;5.23;4.10;;;;;;;;;;5113633;28;20212;-80
2023/09/06 07:30:29;;;;;;;2.80;1.77;;;;;;;;;;5113477;28;20198;-80
2023/09/06 07:32:57;;;;;;;0.87;0.63;;;;;;;;;;5113083;28;20201;-80
2023/09/06 07:35:26;;;;;;;8.63;7.77;;;;;;;;;;5113550;28;20217;-80
2023/09/06 07:37:56;;;;;;;10.70;8.10;;;;;;;;;;5113041;28;20225;-80
2023/09/06 07:40:24;;;;;;;4.80;3.73;;;;;;;;;;5113334;28;20244;-79
2023/09/06 07:42:53;;;;;;;0.20;0.20;;;;;;;;;;5113363;28;20202;-80
2023/09/06 07:45:21;;;;;;;7.07;4.93;;;;;;;;;;5113207;28;20204;-80
2023/09/06 07:47:51;;;;;;;9.13;5.73;;;;;;;;;;5113782;28;20226;-80
2023/09/06 07:50:20;;;;;;;8.93;4.17;;;;;;;;;;5113314;28;20289;-80
2023/09/06 07:52:48;;;;;;;9.83;8.83;;;;;;;;;;5113278;28;20200;-81
2023/09/06 07:55:18;;;;;;;0.57;0.57;;;;;;;;;;5113593;28;20213;-81
2023/09/06 07:57:47;;;;;;;1.07;1.03;;;;;;;;;;5113031;28;20234;-80
2023/09/06 08:00:16;;;;;;;0.93;0.93;;;;;;;;;;5113389;28;20203;-80
2023/09/06 08:02:44;;;;;;;8.93;7.53;;;;;;;;;;5113431;28;20311;-80
2023/09/06 08:05:13;;;;;;;4.20;3.80;;;;;;;;;;5113288;28;20196;-80
2023/09/06 08:07:41;;;;;;;7.23;5.80;;;;;;;;;;5113351;28;20188;-80
2023/09/06 08:10:12;;;;;;;4.17;3.77;;;;;;;;;;5113324;28;20193;-80
2023/09/06 08:12:42;;;;;;;0.33;0.30;;;;;;;;;;5113836;28;20203;-81
2023/09/06 08:15:12;;;;;;;1.97;1.80;;;;;;;;;;5113515;28;20194;-80
2023/09/06 08:17:41;;;;;;;2.80;2.30;;;;;;;;;;5113159;28;20215;-80
2023/09/06 08:20:14;;;;;;;3.37;3.03;;;;;;;;;;5113718;28;20197;-81
2023/09/06 08:22:43;;;;;;;11.57;7.13;;;;;;;;;;5113406;28;20220;-80
2023/09/06 08:25:13;;;;;;;7.23;4.40;;;;;;;;;;5112688;28;20188;-81
2023/09/06 08:27:43;;;;;;;0.50;0.50;;;;;;;;;;5112764;28;20193;-80
2023/09/06 08:30:12;;;;;;;1.63;1.53;;;;;;;;;;5113294;28;20198;-81
2023/09/06 08:32:41;;;;;;;1.23;1.13;;;;;;;;;;5113061;28;20202;-81
2023/09/06 08:35:11;;;;;;;5.07;4.57;;;;;;;;;;5112668;28;20199;-81
2023/09/06 08:37:40;;;;;;;5.47;4.23;;;;;;;;;;5113100;28;20212;-80
2023/09/06 08:40:10;;;;;;;9.67;7.70;;;;;;;;;;5113051;28;20204;-80
2023/09/06 08:42:39;;;;;;;5.80;4.73;;;;;;;;;;5112544;28;20205;-80
2023/09/06 08:45:10;;;;;;;6.63;4.83;;;;;;;;;;5113446;28;20257;-81
2023/09/06 08:47:39;;;;;;;5.43;4.67;;;;;;;;;;5112982;28;20204;-81
2023/09/06 08:50:10;;;;;;;0.87;0.47;;;;;;;;;;5114112;28;20205;-81
2023/09/06 08:52:42;;;;;;;1.20;1.10;;;;;;;;;;5116664;28;20244;-80
2023/09/06 08:55:11;;;;;;;7.67;3.53;;;;;;;;;;5116813;28;20248;-81
2023/09/06 08:57:40;;;;;;;4.50;4.00;;;;;;;;;;5116601;28;20214;-80
2023/09/06 09:00:11;;;;;;;6.47;4.77;;;;;;;;;;5116510;28;20223;-80
2023/09/06 09:02:42;;;;;;;5.90;5.30;;;;;;;;;;5117075;28;20207;-81
2023/09/06 09:05:12;;;;;;;2.23;2.13;;;;;;;;;;5116752;28;20197;-80
2023/09/06 09:07:50;;;;;;;4.70;2.50;;;;;;;;;;5116430;28;20200;-81
2023/09/06 09:10:20;;;;;;;2.10;1.53;;;;;;;;;;5116939;28;20203;-81
2023/09/06 09:12:55;;;;;;;8.77;7.10;;;;;;;;;;5110350;28;20213;-81
2023/09/06 09:15:28;;;;;;;6.30;2.43;;;;;;;;;;5104228;28;20205;-82
2023/09/06 09:17:56;;;;;;;0.20;0.20;;;;;;;;;;5100897;28;20268;-83
2023/09/06 09:20:29;;;;;;;8.23;6.50;;;;;;;;;;5097996;28;20205;-83
2023/09/06 09:22:59;;;;;;;8.17;1.77;;;;;;;;;;5095202;28;20195;-82
2023/09/06 09:25:28;;;;;;;1.13;0.87;;;;;;;;;;5098536;28;20220;-82
2023/09/06 09:27:57;;;;;;;1.40;1.40;;;;;;;;;;5098929;28;20221;-82
2023/09/06 09:30:33;;;;;;;1.57;1.47;;;;;;;;;;5096799;28;20264;-80
2023/09/06 09:33:03;;;;;;;6.40;4.20;;;;;;;;;;5099388;28;20196;-81
2023/09/06 09:35:34;;;;;;;4.23;3.83;;;;;;;;;;5094042;28;20324;-81
2023/09/06 09:38:06;;;;;;;1.70;1.60;;;;;;;;;;5100225;28;20226;-82
2023/09/06 09:40:34;;;;;;;2.77;1.40;;;;;;;;;;5095223;28;20231;-82
2023/09/06 09:43:09;;;;;;;6.33;2.87;;;;;;;;;;5095119;28;20288;-82
2023/09/06 09:45:43;;;;;;;0.57;0.57;;;;;;;;;;5099053;28;20214;-81
2023/09/06 09:48:12;;;;;;;3.57;3.27;;;;;;;;;;5101899;28;20251;-83
2023/09/06 09:50:42;;;;;;;6.83;3.67;;;;;;;;;;5098097;28;20215;-84
2023/09/06 09:53:11;;;;;;;6.57;4.10;;;;;;;;;;5103081;28;20220;-81
2023/09/06 09:56:02;;;;;;;1.53;1.43;;;;;;;;;;5096309;28;20226;-82
2023/09/06 09:58:34;;;;;;;8.80;6.87;;;;;;;;;;5107454;27;20233;-82
2023/09/06 10:01:05;;;;;;;2.67;2.47;;;;;;;;;;5100384;28;20242;-82
2023/09/06 10:03:35;;;;;;;4.67;4.20;;;;;;;;;;5103515;28;20200;-82
2023/09/06 10:06:04;;;;;;;12.37;7.87;;;;;;;;;;5104120;28;20202;-81
2023/09/06 10:08:35;;;;;;;8.53;7.50;;;;;;;;;;5103104;27;20364;-82
2023/09/06 10:11:06;;;;;;;7.77;5.97;;;;;;;;;;5100206;28;20302;-82
2023/09/06 10:13:37;;;;;;;13.43;8.73;;;;;;;;;;5103299;28;20206;-82
2023/09/06 10:16:08;;;;;;;14.30;13.13;;;;;;;;;;5097900;28;20265;-81
2023/09/06 10:18:39;;;;;;;11.60;9.73;;;;;;;;;;5098133;28;20241;-81
2023/09/06 10:21:08;;;;;;;10.97;5.03;;;;;;;;;;5099554;28;20223;-82
2023/09/06 10:23:42;;;;;;;0.53;0.53;;;;;;;;;;5099295;28;20211;-80
2023/09/06 10:26:10;;;;;;;5.73;5.23;;;;;;;;;;5100126;28;20231;-80
2023/09/06 10:28:39;;;;;;;14.73;5.70;;;;;;;;;;5097453;28;20215;-80
2023/09/06 10:31:09;;;;;;;9.43;5.87;;;;;;;;;;5101337;28;20206;-81
2023/09/06 10:33:56;;;;;;;9.43;7.43;;;;;;;;;;5103284;28;20238;-82
2023/09/06 10:36:29;;;;;;;6.50;5.17;;;;;;;;;;5096543;28;20233;-82
2023/09/06 10:39:18;;;;;;;7.23;5.83;;;;;;;;;;5096467;28;20206;-83
2023/09/06 10:42:05;;;;;;;10.77;8.00;;;;;;;;;;5102501;28;20212;-83
2023/09/06 10:44:48;;;;;;;6.77;6.07;;;;;;;;;;5101666;28;20206;-82
2023/09/06 10:47:28;;;;;;;10.63;6.37;;;;;;;;;;5099443;28;20224;-82
2023/09/06 10:50:11;;;;;;;5.30;3.87;;;;;;;;;;5103948;28;20205;-84
2023/09/06 10:52:44;;;;;;;1.33;1.23;;;;;;;;;;5091739;28;20219;-83
2023/09/06 10:55:17;;;;;;;0.20;0.20;;;;;;;;;;5101481;28;20564;-84
2023/09/06 10:57:50;;;;;;;3.17;2.73;;;;;;;;;;5103775;28;20227;-84
2023/09/06 11:00:20;;;;;;;8.03;5.83;;;;;;;;;;5099615;28;20215;-84
2023/09/06 11:03:07;;;;;;;5.73;3.50;;;;;;;;;;5097676;28;20193;-84
2023/09/06 11:05:38;;;;;;;6.43;5.47;;;;;;;;;;5100033;28;20287;-84
2023/09/06 11:08:08;;;;;;;6.53;5.13;;;;;;;;;;5099652;28;20258;-84
2023/09/06 11:10:37;;;;;;;6.53;4.00;;;;;;;;;;5095099;28;20296;-83
2023/09/06 11:13:28;;;;;;;2.63;1.90;;;;;;;;;;5109486;27;20571;-84
2023/09/06 11:15:57;;;;;;;3.73;2.97;;;;;;;;;;5104438;28;20227;-85
2023/09/06 11:18:27;;;;;;;3.07;1.90;;;;;;;;;;5101246;28;20212;-83
2023/09/06 11:20:59;;;;;;;6.07;2.83;;;;;;;;;;5099164;28;20204;-84
2023/09/06 11:23:27;;;;;;;2.43;2.10;;;;;;;;;;5100272;28;20192;-84
2023/09/06 11:25:59;;;;;;;7.60;5.77;;;;;;;;;;5104870;28;20208;-84
2023/09/06 11:28:31;;;;;;;2.03;1.83;;;;;;;;;;5110316;28;20208;-84
2023/09/06 11:31:04;;;;;;;3.47;3.17;;;;;;;;;;5104884;28;20212;-84
2023/09/06 11:33:35;;;;;;;5.53;4.70;;;;;;;;;;5101332;28;20257;-84
2023/09/06 11:36:04;;;;;;;2.27;2.10;;;;;;;;;;5097983;28;20264;-84
2023/09/06 11:38:38;;;;;;;8.13;6.10;;;;;;;;;;5081709;28;20283;-84
2023/09/06 11:41:08;;;;;;;7.67;5.03;;;;;;;;;;5077908;28;20258;-84
2023/09/06 11:43:43;;;;;;;0.13;0.13;;;;;;;;;;5083564;28;20200;-84
2023/09/06 11:46:14;;;;;;;3.43;0.73;;;;;;;;;;5079924;28;20265;-84
2023/09/06 11:48:43;;;;;;;6.17;3.80;;;;;;;;;;5082324;28;20213;-85
2023/09/06 11:51:13;;;;;;;6.00;4.07;;;;;;;;;;5081975;28;20315;-84
2023/09/06 11:53:45;;;;;;;2.73;2.53;;;;;;;;;;5080263;28;20201;-84
2023/09/06 11:56:19;;;;;;;0.60;0.60;;;;;;;;;;5080966;28;20232;-84
2023/09/06 11:58:51;;;;;;;9.27;2.87;;;;;;;;;;5078257;28;20205;-83
2023/09/06 12:01:24;;;;;;;2.87;1.23;;;;;;;;;;5080766;28;20256;-83
2023/09/06 12:03:56;;;;;;;3.07;2.80;;;;;;;;;;5080736;28;20236;-83
2023/09/06 12:06:27;;;;;;;5.97;4.60;;;;;;;;;;5079195;28;20209;-84
2023/09/06 12:08:56;;;;;;;3.60;1.43;;;;;;;;;;5079595;28;20201;-84
2023/09/06 12:11:27;;;;;;;0.30;0.30;;;;;;;;;;5082979;28;20241;-84
2023/09/06 12:13:57;;;;;;;2.90;2.60;;;;;;;;;;5081944;28;20210;-83
2023/09/06 12:16:26;;;;;;;5.10;3.20;;;;;;;;;;5078807;28;20206;-84
2023/09/06 12:18:56;;;;;;;9.87;4.87;;;;;;;;;;5077545;28;20205;-84
2023/09/06 12:21:25;;;;;;;1.63;1.53;;;;;;;;;;5077559;28;20221;-84
2023/09/06 12:23:53;;;;;;;0.20;0.20;;;;;;;;;;5064273;28;20221;-83
2023/09/06 12:26:22;;;;;;;3.73;3.17;;;;;;;;;;5066661;28;20197;-84
2023/09/06 12:28:51;;;;;;;2.50;2.27;;;;;;;;;;5066279;28;20222;-83
2023/09/06 12:31:21;;;;;;;0.60;0.60;;;;;;;;;;5067068;28;20203;-84
2023/09/06 12:33:51;;;;;;;1.07;1.07;;;;;;;;;;5065185;28;20218;-83
2023/09/06 12:36:20;;;;;;;0.10;0.10;;;;;;;;;;5065562;28;20220;-84
2023/09/06 12:38:49;;;;;;;0.90;0.90;;;;;;;;;;5065289;28;20293;-82
2023/09/06 12:41:18;;;;;;;1.13;1.07;;;;;;;;;;5062555;28;20232;-86
2023/09/06 12:43:46;;;;;;;0.20;0.20;;;;;;;;;;5068789;28;20314;-82
2023/09/06 12:46:15;;;;;;;6.57;4.53;;;;;;;;;;5062436;28;20232;-83
2023/09/06 12:48:46;;;;;;;3.97;1.40;;;;;;;;;;5069463;28;20202;-82
2023/09/06 12:51:15;;;;;;;2.53;2.13;;;;;;;;;;5067218;28;20213;-81
2023/09/06 12:53:44;;;;;;;2.83;2.63;;;;;;;;;;5067446;28;20205;-83
2023/09/06 12:56:12;;;;;;;5.20;1.97;;;;;;;;;;5063702;28;20224;-82
2023/09/06 12:58:43;;;;;;;5.43;1.87;;;;;;;;;;5066200;28;20230;-82
2023/09/06 13:01:12;;;;;;;3.87;2.90;;;;;;;;;;5069361;28;20274;-81
2023/09/06 13:03:45;;;;;;;0.10;0.10;;;;;;;;;;5065035;28;20301;-81
2023/09/06 13:06:14;;;;;;;3.27;1.33;;;;;;;;;;5064372;28;20201;-81
2023/09/06 13:08:48;;;;;;;4.67;3.73;;;;;;;;;;5069745;28;20202;-81
2023/09/06 13:11:17;;;;;;;0.30;0.30;;;;;;;;;;5063904;28;20244;-83
2023/09/06 13:13:45;;;;;;;0.40;0.40;;;;;;;;;;5065508;28;20201;-82
2023/09/06 13:16:14;;;;;;;2.13;1.93;;;;;;;;;;5065229;28;20270;-82
2023/09/06 13:18:43;;;;;;;7.33;2.73;;;;;;;;;;5066969;28;20230;-83
2023/09/06 13:21:13;;;;;;;4.40;3.40;;;;;;;;;;5066471;28;20205;-83
2023/09/06 13:23:42;;;;;;;5.23;2.73;;;;;;;;;;5062330;28;20275;-83
2023/09/06 13:26:11;;;;;;;1.90;1.67;;;;;;;;;;5060235;28;20207;-83
2023/09/06 13:28:40;;;;;;;2.83;1.10;;;;;;;;;;5066540;28;20213;-82
2023/09/06 13:31:10;;;;;;;2.70;2.07;;;;;;;;;;5061008;28;20292;-82
2023/09/06 13:33:39;;;;;;;0.20;0.20;;;;;;;;;;5066322;28;20201;-82
2023/09/06 13:36:09;;;;;;;7.97;0.93;;;;;;;;;;5064449;28;20272;-82
2023/09/06 13:38:38;;;;;;;2.23;2.03;;;;;;;;;;5064843;28;20201;-82
2023/09/06 13:41:07;;;;;;;2.17;1.67;;;;;;;;;;5064007;28;20210;-82
2023/09/06 13:43:36;;;;;;;11.10;2.17;;;;;;;;;;5068256;28;20221;-83
2023/09/06 13:46:05;;;;;;;1.13;0.83;;;;;;;;;;5065887;28;20247;-81
2023/09/06 13:48:34;;;;;;;0.50;0.50;;;;;;;;;;5066772;28;20209;-82
2023/09/06 13:51:02;;;;;;;3.77;2.20;;;;;;;;;;5068142;28;20364;-82
2023/09/06 13:53:31;;;;;;;2.30;1.67;;;;;;;;;;5062238;28;20194;-82
2023/09/06 13:56:02;;;;;;;1.23;1.07;;;;;;;;;;5063554;28;20206;-82
2023/09/06 13:58:31;;;;;;;2.40;2.07;;;;;;;;;;5062541;28;20206;-81
2023/09/06 14:01:01;;;;;;;0.10;0.10;;;;;;;;;;5077722;28;20197;-82
2023/09/06 14:03:30;;;;;;;0.10;0.10;;;;;;;;;;5076824;28;20213;-82
2023/09/06 14:05:59;;;;;;;0.50;0.50;;;;;;;;;;5060905;28;20292;-84
2023/09/06 14:08:31;;;;;;;0.47;0.47;;;;;;;;;;5063497;28;20221;-85
2023/09/06 14:11:02;;;;;;;1.07;1.03;;;;;;;;;;5062480;28;20234;-82
2023/09/06 14:13:31;;;;;;;0.30;0.30;;;;;;;;;;5062614;28;20242;-82
2023/09/06 14:16:02;;;;;;;2.40;2.30;;;;;;;;;;5065867;28;20232;-82
2023/09/06 14:18:31;;;;;;;1.00;0.40;;;;;;;;;;5063990;28;20229;-83
2023/09/06 14:21:01;;;;;;;4.57;1.47;;;;;;;;;;5066204;28;20215;-83
2023/09/06 14:23:29;;;;;;;1.90;1.60;;;;;;;;;;5061943;28;20232;-83
2023/09/06 14:25:58;;;;;;;3.10;1.50;;;;;;;;;;5064298;28;20207;-83
2023/09/06 14:28:28;;;;;;;0.20;0.20;;;;;;;;;;5063429;28;20213;-82
2023/09/06 14:30:58;;;;;;;0.47;0.47;;;;;;;;;;5065324;28;20241;-83
2023/09/06 14:33:27;;;;;;;2.07;1.97;;;;;;;;;;5069247;28;20206;-83
2023/09/06 14:35:56;;;;;;;1.00;1.00;;;;;;;;;;5065402;28;20219;-83
2023/09/06 14:38:25;;;;;;;0.10;0.10;;;;;;;;;;5062043;28;20281;-83
2023/09/06 14:40:57;;;;;;;0.20;0.20;;;;;;;;;;5062535;28;20205;-83
2023/09/06 14:43:26;;;;;;;2.57;1.40;;;;;;;;;;5068062;28;20376;-83
2023/09/06 14:46:04;;;;;;;6.00;2.37;;;;;;;;;;5062331;28;20297;-84
2023/09/06 14:48:35;;;;;;;2.07;1.67;;;;;;;;;;5062468;28;20211;-85
2023/09/06 14:51:04;;;;;;;4.37;2.87;;;;;;;;;;5066575;28;20214;-85
2023/09/06 14:53:33;;;;;;;5.63;1.97;;;;;;;;;;5065602;28;20200;-84
2023/09/06 14:56:02;;;;;;;2.23;2.00;;;;;;;;;;5063249;28;20228;-84
2023/09/06 14:58:31;;;;;;;2.17;1.97;;;;;;;;;;5065222;28;20247;-86
2023/09/06 15:01:00;;;;;;;1.60;1.50;;;;;;;;;;5062607;28;20206;-85